createdAt,value
2019-04-23T00:01:14.713Z,98564.14
2019-04-23T00:03:34.434Z,98562.13
2019-04-23T00:06:15.150Z,98556.77
2019-04-23T00:08:42.108Z,98548.89
2019-04-23T00:11:15.646Z,98552.58
2019-04-23T00:13:45.540Z,98541.20
2019-04-23T00:18:42.575Z,98542.54
2019-04-23T00:21:33.409Z,98532.61
2019-04-23T00:29:15.020Z,98521.88
2019-04-23T00:31:31.701Z,98526.52
2019-04-23T00:34:09.316Z,98514.36
2019-04-23T00:36:37.479Z,98507.92
2019-04-23T00:39:01.781Z,98513.69
2019-04-23T00:41:36.490Z,98515.14
2019-04-23T00:44:08.686Z,98511.95
2019-04-23T00:46:43.457Z,98504.41
2019-04-23T00:49:18.117Z,98509.39
2019-04-23T00:51:44.167Z,98500.17
2019-04-23T00:54:12.284Z,98498.68
2019-04-23T00:56:44.921Z,98495.73
2019-04-23T00:59:11.914Z,98490.34
2019-04-23T01:01:53.119Z,98499.13
2019-04-23T01:04:17.264Z,98497.83
2019-04-23T01:06:52.851Z,98494.75
2019-04-23T01:09:15.272Z,98498.84
2019-04-23T01:11:49.243Z,98496.84
2019-04-23T01:14:20.278Z,98494.17
2019-04-23T01:16:53.006Z,98496.05
2019-04-23T01:19:35.176Z,98498.25
2019-04-23T01:21:38.954Z,98497.52
2019-04-23T01:24:25.856Z,98495.23
2019-04-23T01:30:05.320Z,98491.52
2019-04-23T01:32:33.594Z,98496.27
2019-04-23T01:35:13.887Z,98490.63
2019-04-23T01:37:36.983Z,98483.76
2019-04-23T01:40:04.278Z,98482.53
2019-04-23T01:42:40.688Z,98481.53
2019-04-23T01:45:13.241Z,98479.02
2019-04-23T01:47:40.627Z,98477.13
2019-04-23T01:50:14.198Z,98471.77
2019-04-23T01:52:49.901Z,98473.16
2019-04-23T01:55:17.896Z,98466.16
2019-04-23T01:57:46.603Z,98466.88
2019-04-23T02:00:17.193Z,98458.44
2019-04-23T02:02:49.599Z,98458.77
2019-04-23T02:07:50.498Z,98457.20
2019-04-23T02:10:21.940Z,98447.50
2019-04-23T02:12:55.607Z,98454.59
2019-04-23T02:15:18.679Z,98449.16
2019-04-23T02:17:54.603Z,98443.02
2019-04-23T02:20:23.747Z,98449.38
2019-04-23T02:25:41.168Z,98458.50
2019-04-23T02:28:04.837Z,98458.23
2019-04-23T02:33:20.171Z,98454.58
2019-04-23T02:38:10.145Z,98455.19
2019-04-23T02:40:46.450Z,98448.16
2019-04-23T02:43:15.160Z,98446.66
2019-04-23T02:45:48.857Z,98446.02
2019-04-23T02:48:19.912Z,98440.78
2019-04-23T02:53:53.559Z,98430.83
2019-04-23T02:58:21.460Z,98426.41
2019-04-23T03:03:25.223Z,98425.47
2019-04-23T03:08:26.745Z,98420.92
2019-04-23T03:11:01.323Z,98419.66
2019-04-23T03:16:15.563Z,98413.39
2019-04-23T03:18:53.626Z,98412.81
2019-04-23T03:24:38.895Z,98404.48
2019-04-23T03:35:09.774Z,98403.36
2019-04-23T03:37:24.774Z,98399.23
2019-04-23T03:39:44.208Z,98398.22
2019-04-23T03:42:02.537Z,98397.31
2019-04-23T03:44:49.397Z,98397.27
2019-04-23T03:47:03.741Z,98396.48
2019-04-23T03:49:33.319Z,98400.61
2019-04-23T04:02:20.894Z,98393.90
2019-04-23T04:04:33.314Z,98392.34
2019-04-23T04:12:16.635Z,98388.42
2019-04-23T04:15:24.887Z,98393.44
2019-04-23T04:17:15.933Z,98392.38
2019-04-23T04:22:28.814Z,98396.83
2019-04-23T04:27:14.558Z,98394.47
2019-04-23T04:32:12.024Z,98385.72
2019-04-23T04:42:14.634Z,98382.45
2019-04-23T04:45:13.696Z,98381.44
2019-04-23T04:54:55.921Z,98370.73
2019-04-23T04:57:37.320Z,98363.15
2019-04-23T05:00:13.282Z,98366.42
2019-04-23T05:03:04.335Z,98362.97
2019-04-23T05:05:29.753Z,98359.46
2019-04-23T05:07:35.841Z,98362.97
2019-04-23T05:10:29.688Z,98353.26
2019-04-23T05:12:52.103Z,98359.65
2019-04-23T05:15:03.209Z,98352.02
2019-04-23T05:18:00.000Z,98351.05
2019-04-23T05:20:32.791Z,98346.93
2019-04-23T05:25:24.289Z,98345.34
2019-04-23T05:28:05.616Z,98343.17
2019-04-23T05:30:33.096Z,98340.69
2019-04-23T05:33:05.146Z,98341.52
2019-04-23T05:35:46.573Z,98339.23
2019-04-23T05:40:37.942Z,98336.52
2019-04-23T05:43:08.217Z,98338.64
2019-04-23T05:45:34.386Z,98342.92
2019-04-23T05:48:13.189Z,98340.02
2019-04-23T05:51:00.105Z,98346.86
2019-04-23T05:55:42.658Z,98351.10
2019-04-23T05:58:16.531Z,98350.27
2019-04-23T06:00:44.917Z,98352.72
2019-04-23T06:03:17.995Z,98346.37
2019-04-23T06:05:46.492Z,98346.89
2019-04-23T06:08:28.507Z,98338.89
2019-04-23T06:10:57.218Z,98334.81
2019-04-23T06:13:26.228Z,98331.09
2019-04-23T06:15:52.103Z,98331.49
2019-04-23T06:20:57.607Z,98333.92
2019-04-23T06:23:30.362Z,98336.15
2019-04-23T06:26:10.103Z,98330.09
2019-04-23T06:28:26.868Z,98338.05
2019-04-23T06:31:01.728Z,98341.45
2019-04-23T06:33:34.170Z,98332.78
2019-04-23T06:36:05.554Z,98326.72
2019-04-23T06:41:04.824Z,98318.56
2019-04-23T06:44:00.495Z,98308.00
2019-04-23T06:46:23.017Z,98308.84
2019-04-23T06:48:47.169Z,98309.67
2019-04-23T06:51:27.395Z,98312.62
2019-04-23T06:53:51.321Z,98309.69
2019-04-23T06:56:26.363Z,98304.73
2019-04-23T06:59:12.059Z,98305.64
2019-04-23T07:01:27.407Z,98308.77
2019-04-23T07:03:56.946Z,98302.44
2019-04-23T07:06:48.765Z,98298.27
2019-04-23T07:09:09.658Z,98302.43
2019-04-23T07:21:27.971Z,98294.28
2019-04-23T07:24:05.391Z,98291.78
2019-04-23T07:31:44.546Z,98282.84
2019-04-23T07:34:18.759Z,98285.13
2019-04-23T07:44:28.144Z,98284.04
2019-04-23T07:49:50.608Z,98274.46
2019-04-23T07:52:20.139Z,98269.19
2019-04-23T07:54:45.722Z,98267.34
2019-04-23T07:59:50.113Z,98271.82
2019-04-23T08:02:19.985Z,98268.47
2019-04-23T08:05:04.810Z,98263.69
2019-04-23T08:07:20.022Z,98269.39
2019-04-23T08:09:53.371Z,98262.25
2019-04-23T08:12:25.523Z,98261.68
2019-04-23T08:14:53.573Z,98264.78
2019-04-23T08:17:22.586Z,98261.61
2019-04-23T08:20:03.010Z,98256.16
2019-04-23T08:22:28.707Z,98254.54
2019-04-23T08:25:08.980Z,98256.66
2019-04-23T08:27:36.850Z,98256.59
2019-04-23T08:30:04.503Z,98257.31
2019-04-23T08:32:37.030Z,98256.98
2019-04-23T08:35:14.161Z,98255.98
2019-04-23T08:40:18.545Z,98251.34
2019-04-23T08:43:07.493Z,98253.41
2019-04-23T08:45:28.023Z,98250.59
2019-04-23T08:48:14.003Z,98241.50
2019-04-23T08:53:23.287Z,98243.33
2019-04-23T08:55:46.890Z,98243.30
2019-04-23T08:58:14.395Z,98238.90
2019-04-23T09:01:01.361Z,98242.31
2019-04-23T09:03:20.578Z,98236.55
2019-04-23T09:08:23.387Z,98231.91
2019-04-23T09:10:55.929Z,98234.25
2019-04-23T09:18:20.970Z,98226.98
2019-04-23T09:20:47.983Z,98231.72
2019-04-23T09:23:26.367Z,98227.13
2019-04-23T09:25:55.595Z,98230.99
2019-04-23T09:28:33.294Z,98230.25
2019-04-23T09:31:03.550Z,98237.70
2019-04-23T09:33:39.825Z,98236.24
2019-04-23T09:36:13.857Z,98231.78
2019-04-23T09:44:14.595Z,98231.13
2019-04-23T09:46:53.320Z,98219.75
2019-04-23T09:49:28.968Z,98227.39
2019-04-23T09:54:24.253Z,98230.37
2019-04-23T09:56:52.604Z,98232.58
2019-04-23T10:01:52.941Z,98238.88
2019-04-23T10:04:17.056Z,98235.89
2019-04-23T10:06:36.765Z,98240.92
2019-04-23T10:09:06.633Z,98233.41
2019-04-23T10:11:34.724Z,98232.93
2019-04-23T10:14:03.920Z,98232.45
2019-04-23T10:16:34.309Z,98228.91
2019-04-23T10:19:03.849Z,98229.35
2019-04-23T10:21:33.440Z,98223.77
2019-04-23T10:24:03.358Z,98223.79
2019-04-23T10:26:34.231Z,98228.67
2019-04-23T10:29:05.633Z,98221.59
2019-04-23T10:31:35.644Z,98224.31
2019-04-23T10:34:08.162Z,98223.69
2019-04-23T10:36:38.670Z,98223.66
2019-04-23T10:39:15.593Z,98226.34
2019-04-23T10:41:42.519Z,98225.13
2019-04-23T10:44:17.230Z,98227.95
2019-04-23T10:47:16.555Z,98229.96
2019-04-23T10:50:00.706Z,98230.60
2019-04-23T10:55:02.637Z,98234.27
2019-04-23T10:57:25.080Z,98236.19
2019-04-23T10:59:53.959Z,98231.89
2019-04-23T11:02:40.273Z,98231.45
2019-04-23T11:05:13.722Z,98227.46
2019-04-23T11:10:08.579Z,98233.73
2019-04-23T11:13:05.747Z,98236.11
2019-04-23T11:15:44.169Z,98238.06
2019-04-23T11:17:53.528Z,98244.30
2019-04-23T11:22:48.105Z,98245.34
2019-04-23T11:25:31.295Z,98250.64
2019-04-23T11:27:59.812Z,98247.69
2019-04-23T11:30:31.968Z,98245.55
2019-04-23T11:33:10.215Z,98243.48
2019-04-23T11:38:06.578Z,98245.61
2019-04-23T11:38:21.242Z,98248.34
2019-04-23T11:43:08.763Z,98241.73
2019-04-23T11:48:40.126Z,98234.98
2019-04-23T11:51:17.540Z,98231.69
2019-04-23T11:53:10.411Z,98236.55
2019-04-23T11:55:44.695Z,98235.30
2019-04-23T12:01:11.100Z,98228.94
2019-04-23T12:03:37.691Z,98234.08
2019-04-23T12:06:32.160Z,98232.63
2019-04-23T12:08:56.666Z,98233.81
2019-04-23T12:14:33.007Z,98229.99
2019-04-23T12:17:09.713Z,98229.40
2019-04-23T12:22:01.050Z,98219.94
2019-04-23T12:25:02.547Z,98229.28
2019-04-23T12:40:23.497Z,98226.55
2019-04-23T12:45:24.979Z,98223.11
2019-04-23T12:52:47.656Z,98214.88
2019-04-23T12:55:34.131Z,98209.02
2019-04-23T12:58:03.427Z,98211.93
2019-04-23T13:00:22.475Z,98210.08
2019-04-23T13:03:02.797Z,98213.66
2019-04-23T13:07:55.552Z,98213.18
2019-04-23T13:10:28.358Z,98212.09
2019-04-23T13:17:55.036Z,98217.29
2019-04-23T13:20:27.706Z,98218.02
2019-04-23T13:23:01.800Z,98210.34
2019-04-23T13:25:39.808Z,98210.44
2019-04-23T13:28:13.039Z,98213.24
2019-04-23T13:33:26.783Z,98208.50
2019-04-23T13:38:27.232Z,98202.21
2019-04-23T13:40:59.760Z,98198.78
2019-04-23T13:43:30.391Z,98203.99
2019-04-23T13:48:14.757Z,98190.50
2019-04-23T13:53:36.918Z,98191.61
2019-04-23T13:55:56.718Z,98190.15
2019-04-23T13:58:24.837Z,98190.77
2019-04-23T14:01:24.637Z,98189.23
2019-04-23T14:03:37.889Z,98183.12
2019-04-23T14:06:10.783Z,98179.13
2019-04-23T14:11:05.484Z,98176.55
2019-04-23T14:16:29.154Z,98173.22
2019-04-23T14:18:53.925Z,98170.39
2019-04-23T14:21:14.098Z,98167.42
2019-04-23T14:23:59.673Z,98165.22
2019-04-23T14:28:43.518Z,98162.72
2019-04-23T14:31:10.568Z,98166.00
2019-04-23T14:34:01.710Z,98163.77
2019-04-23T14:36:21.542Z,98163.91
2019-04-23T14:41:24.930Z,98164.36
2019-04-23T14:43:58.085Z,98160.61
2019-04-23T14:46:34.393Z,98161.80
2019-04-23T14:49:04.227Z,98161.34
2019-04-23T14:51:30.906Z,98162.17
2019-04-23T14:53:48.446Z,98160.75
2019-04-23T14:56:22.685Z,98160.62
2019-04-23T14:59:07.244Z,98161.02
2019-04-23T15:03:55.282Z,98162.22
2019-04-23T15:09:07.429Z,98159.78
2019-04-23T15:14:06.077Z,98152.42
2019-04-23T15:19:19.883Z,98143.38
2019-04-23T15:21:59.577Z,98143.26
2019-04-23T15:24:30.645Z,98141.74
2019-04-23T15:29:04.473Z,98139.98
2019-04-23T15:31:59.303Z,98144.30
2019-04-23T15:34:31.023Z,98140.69
2019-04-23T15:37:09.318Z,98139.08
2019-04-23T15:39:42.952Z,98139.35
2019-04-23T15:44:16.132Z,98139.94
2019-04-23T15:49:26.592Z,98134.28
2019-04-23T15:52:06.750Z,98133.33
2019-04-23T15:54:35.194Z,98135.55
2019-04-23T15:59:36.478Z,98135.22
2019-04-23T16:01:42.510Z,98136.39
2019-04-23T16:04:06.077Z,98135.28
2019-04-23T16:06:38.544Z,98133.97
2019-04-23T16:09:34.031Z,98135.05
2019-04-23T16:11:59.141Z,98134.78
2019-04-23T16:17:13.833Z,98132.61
2019-04-23T16:19:52.831Z,98133.66
2019-04-23T16:22:10.621Z,98132.65
2019-04-23T16:24:51.917Z,98136.42
2019-04-23T16:27:14.956Z,98135.85
2019-04-23T16:32:28.394Z,98134.46
2019-04-23T16:34:58.393Z,98134.97
2019-04-23T16:37:29.253Z,98134.96
2019-04-23T16:40:03.936Z,98135.13
2019-04-23T16:45:06.348Z,98130.81
2019-04-23T16:47:32.880Z,98130.44
2019-04-23T16:50:04.750Z,98134.25
2019-04-23T16:52:26.669Z,98131.34
2019-04-23T16:55:03.667Z,98134.27
2019-04-23T17:00:21.127Z,98131.58
2019-04-23T17:02:33.450Z,98133.33
2019-04-23T17:05:16.483Z,98125.16
2019-04-23T17:07:36.275Z,98135.34
2019-04-23T17:12:38.695Z,98132.89
2019-04-23T17:15:10.907Z,98134.23
2019-04-23T17:17:38.016Z,98128.45
2019-04-23T17:25:17.547Z,98131.47
2019-04-23T17:27:51.029Z,98129.70
2019-04-23T17:30:21.471Z,98132.52
2019-04-23T17:33:07.773Z,98136.34
2019-04-23T17:35:56.124Z,98133.70
2019-04-23T17:38:26.416Z,98134.30
2019-04-23T17:41:03.135Z,98138.77
2019-04-23T17:43:32.891Z,98136.08
2019-04-23T17:46:11.082Z,98140.09
2019-04-23T17:48:34.980Z,98134.23
2019-04-23T17:53:48.702Z,98136.14
2019-04-23T17:59:07.246Z,98137.90
2019-04-23T18:01:20.326Z,98143.33
2019-04-23T18:09:00.794Z,98150.30
2019-04-23T18:16:35.161Z,98147.66
2019-04-23T18:21:55.215Z,98149.20
2019-04-23T18:24:16.437Z,98152.03
2019-04-23T18:26:45.795Z,98151.59
2019-04-23T18:29:26.089Z,98156.43
2019-04-23T18:31:46.898Z,98155.95
2019-04-23T18:34:23.323Z,98154.17
2019-04-23T18:36:54.584Z,98159.56
2019-04-23T18:39:30.001Z,98160.71
2019-04-23T18:42:11.585Z,98162.13
2019-04-23T18:44:38.684Z,98164.92
2019-04-23T18:47:01.691Z,98171.70
2019-04-23T18:49:37.092Z,98178.43
2019-04-23T18:52:06.932Z,98176.48
2019-04-23T18:54:35.274Z,98180.47
2019-04-23T18:59:46.453Z,98180.92
2019-04-23T19:02:17.947Z,98182.88
2019-04-23T19:15:39.649Z,98192.72
2019-04-23T19:18:06.038Z,98196.30
2019-04-23T19:20:53.475Z,98201.64
2019-04-23T19:23:19.095Z,98197.73
2019-04-23T19:25:54.912Z,98196.75
2019-04-23T19:30:53.827Z,98199.06
2019-04-23T19:33:35.234Z,98201.70
2019-04-23T19:38:33.167Z,98202.21
2019-04-23T19:41:03.827Z,98205.70
2019-04-23T19:43:33.033Z,98208.48
2019-04-23T19:46:09.640Z,98207.52
2019-04-23T19:51:08.852Z,98212.11
2019-04-23T19:58:45.009Z,98211.23
2019-04-23T20:03:48.644Z,98215.12
2019-04-23T20:06:07.705Z,98215.77
2019-04-23T20:08:55.863Z,98219.44
2019-04-23T20:13:52.658Z,98219.07
2019-04-23T20:18:50.432Z,98217.72
2019-04-23T20:21:29.952Z,98223.41
2019-04-23T20:26:23.521Z,98220.81
2019-04-23T20:32:15.344Z,98217.20
2019-04-23T20:33:02.207Z,98221.57
2019-04-23T20:39:34.939Z,98208.00
2019-04-23T20:44:40.076Z,98213.09
2019-04-23T20:47:06.727Z,98209.66
2019-04-23T20:49:42.274Z,98212.31
2019-04-23T20:54:42.369Z,98215.66
2019-04-23T20:57:35.667Z,98216.14
2019-04-23T21:03:06.654Z,98225.45
2019-04-23T21:07:54.150Z,98223.27
2019-04-23T21:15:37.601Z,98224.73
2019-04-23T21:18:06.209Z,98222.02
2019-04-23T21:20:24.502Z,98226.62
2019-04-23T21:25:22.230Z,98223.40
2019-04-23T21:28:08.705Z,98225.81
2019-04-23T21:30:59.468Z,98222.52
2019-04-23T21:33:11.616Z,98223.98
2019-04-23T21:41:29.959Z,98220.29
2019-04-23T21:44:10.309Z,98223.09
2019-04-23T21:56:37.299Z,98215.19
2019-04-23T22:04:21.103Z,98220.58
2019-04-23T22:06:43.299Z,98217.41
2019-04-23T22:09:15.963Z,98221.36
2019-04-23T22:14:27.675Z,98223.31
2019-04-23T22:16:52.028Z,98219.80
2019-04-23T22:29:18.377Z,98220.30
2019-04-23T22:31:47.173Z,98221.64
2019-04-23T22:34:22.075Z,98224.31
2019-04-23T22:37:01.870Z,98221.16
2019-04-23T22:39:23.952Z,98224.34
2019-04-23T22:41:56.108Z,98227.84
2019-04-23T22:44:50.708Z,98230.17
2019-04-23T22:52:19.236Z,98235.42
2019-04-23T22:54:31.771Z,98230.13
2019-04-23T23:02:09.281Z,98237.83
2019-04-23T23:04:51.728Z,98240.06
2019-04-23T23:07:14.102Z,98240.95
2019-04-23T23:09:56.483Z,98241.96
2019-04-23T23:12:13.815Z,98238.05
2019-04-23T23:14:48.784Z,98242.50
2019-04-23T23:17:16.782Z,98240.52
2019-04-23T23:22:40.151Z,98242.19
2019-04-23T23:25:02.501Z,98247.03
2019-04-23T23:27:15.143Z,98243.09
2019-04-23T23:30:01.075Z,98249.02
2019-04-23T23:32:24.410Z,98248.03
2019-04-23T23:35:07.914Z,98251.31
2019-04-23T23:37:24.310Z,98247.91
2019-04-23T23:40:04.943Z,98251.77
2019-04-23T23:42:21.801Z,98246.25
2019-04-23T23:45:02.194Z,98242.52
2019-04-23T23:50:16.236Z,98247.16
2019-04-23T23:52:38.974Z,98252.14
2019-04-23T23:57:34.544Z,98254.83
